Allens Point, New York
Current Conditions -  °F | °C
As of 4:44 AM on Friday 28 Nov 2014 (Local Time) from KPEO Reporting Station
Light Snow Light Snow  
Wind Chill: 15°   Ceiling: 2200
Heat Index: 26°   Visibility: 2.5mi
Dew Point: 20°   Wind: 13mph
Humidity: 78%   Direction: 290°WNW
Pressure: 30.12"   Gusts: 28mph
Location:  42.8228°N, 76.6558°W
Report Text: KPEO 280944Z AUTO 29011G24KT 2 1/2SM -SN OVC022 M03/M07 A3012 RMK AO2 PK WND 28027/0932 P0000 T10331067
Loading
Personal Weather Stations






























Interactive Weather Map New forecast layout! Learn more

10-Day Weather Forecast

Advertisements
Track Severe Weather on mobile